sensor_id;sensor_type;location;lat;lon;timestamp;P1;durP1;ratioP1;P2;durP2;ratioP2
10170;SDS011;5127;50.922;6.988;2022-08-02T00:00:07;1.52;;;1.42;;
10170;SDS011;5127;50.922;6.988;2022-08-02T00:02:36;1.98;;;1.70;;
10170;SDS011;5127;50.922;6.988;2022-08-02T00:05:04;1.80;;;1.65;;
10170;SDS011;5127;50.922;6.988;2022-08-02T00:07:32;3.42;;;1.65;;
10170;SDS011;5127;50.922;6.988;2022-08-02T00:10:01;1.77;;;1.55;;
10170;SDS011;5127;50.922;6.988;2022-08-02T00:12:29;1.90;;;1.60;;
10170;SDS011;5127;50.922;6.988;2022-08-02T00:14:57;1.80;;;1.70;;
10170;SDS011;5127;50.922;6.988;2022-08-02T00:17:24;1.73;;;1.63;;
10170;SDS011;5127;50.922;6.988;2022-08-02T00:19:52;2.13;;;1.83;;
10170;SDS011;5127;50.922;6.988;2022-08-02T00:22:19;2.00;;;1.80;;
10170;SDS011;5127;50.922;6.988;2022-08-02T00:24:46;2.45;;;1.60;;
10170;SDS011;5127;50.922;6.988;2022-08-02T00:27:15;1.80;;;1.60;;
10170;SDS011;5127;50.922;6.988;2022-08-02T00:29:42;1.95;;;1.73;;
10170;SDS011;5127;50.922;6.988;2022-08-02T00:32:09;2.45;;;1.60;;
10170;SDS011;5127;50.922;6.988;2022-08-02T00:34:36;1.70;;;1.60;;
10170;SDS011;5127;50.922;6.988;2022-08-02T00:37:04;1.67;;;1.55;;
10170;SDS011;5127;50.922;6.988;2022-08-02T00:39:31;1.93;;;1.50;;
10170;SDS011;5127;50.922;6.988;2022-08-02T00:41:59;2.63;;;1.70;;
10170;SDS011;5127;50.922;6.988;2022-08-02T00:44:27;1.67;;;1.57;;
10170;SDS011;5127;50.922;6.988;2022-08-02T00:46:55;2.10;;;1.90;;
10170;SDS011;5127;50.922;6.988;2022-08-02T00:49:22;2.28;;;1.70;;
10170;SDS011;5127;50.922;6.988;2022-08-02T00:51:49;2.53;;;1.80;;
10170;SDS011;5127;50.922;6.988;2022-08-02T00:54:16;1.97;;;1.60;;
10170;SDS011;5127;50.922;6.988;2022-08-02T00:56:44;1.83;;;1.70;;
10170;SDS011;5127;50.922;6.988;2022-08-02T00:59:11;2.07;;;1.57;;
10170;SDS011;5127;50.922;6.988;2022-08-02T01:01:39;2.17;;;1.40;;
10170;SDS011;5127;50.922;6.988;2022-08-02T01:04:08;3.27;;;1.70;;
10170;SDS011;5127;50.922;6.988;2022-08-02T01:06:36;2.00;;;1.43;;
10170;SDS011;5127;50.922;6.988;2022-08-02T01:09:05;1.80;;;1.70;;
10170;SDS011;5127;50.922;6.988;2022-08-02T01:11:33;2.30;;;1.40;;
10170;SDS011;5127;50.922;6.988;2022-08-02T01:14:02;1.83;;;1.60;;
10170;SDS011;5127;50.922;6.988;2022-08-02T01:16:34;1.67;;;1.43;;
10170;SDS011;5127;50.922;6.988;2022-08-02T01:19:09;1.67;;;1.50;;
10170;SDS011;5127;50.922;6.988;2022-08-02T01:21:53;3.90;;;1.60;;
10170;SDS011;5127;50.922;6.988;2022-08-02T01:24:46;1.60;;;1.50;;
10170;SDS011;5127;50.922;6.988;2022-08-02T01:27:32;2.87;;;1.70;;
10170;SDS011;5127;50.922;6.988;2022-08-02T01:30:10;2.33;;;1.77;;
10170;SDS011;5127;50.922;6.988;2022-08-02T01:32:40;2.67;;;1.50;;
10170;SDS011;5127;50.922;6.988;2022-08-02T01:35:13;1.90;;;1.60;;
10170;SDS011;5127;50.922;6.988;2022-08-02T01:37:47;1.53;;;1.43;;
10170;SDS011;5127;50.922;6.988;2022-08-02T01:40:20;1.70;;;1.60;;
10170;SDS011;5127;50.922;6.988;2022-08-02T01:42:51;2.07;;;1.77;;
10170;SDS011;5127;50.922;6.988;2022-08-02T01:45:24;3.20;;;1.73;;
10170;SDS011;5127;50.922;6.988;2022-08-02T01:47:55;2.77;;;1.83;;
10170;SDS011;5127;50.922;6.988;2022-08-02T01:50:24;2.00;;;1.80;;
10170;SDS011;5127;50.922;6.988;2022-08-02T01:52:54;2.03;;;1.87;;
10170;SDS011;5127;50.922;6.988;2022-08-02T01:55:24;3.10;;;2.07;;
10170;SDS011;5127;50.922;6.988;2022-08-02T01:57:56;2.53;;;1.80;;
10170;SDS011;5127;50.922;6.988;2022-08-02T02:00:27;2.80;;;2.00;;
10170;SDS011;5127;50.922;6.988;2022-08-02T02:02:57;7.07;;;2.17;;
10170;SDS011;5127;50.922;6.988;2022-08-02T02:05:26;4.60;;;2.23;;
10170;SDS011;5127;50.922;6.988;2022-08-02T02:07:57;2.43;;;2.10;;
10170;SDS011;5127;50.922;6.988;2022-08-02T02:10:27;2.13;;;1.90;;
10170;SDS011;5127;50.922;6.988;2022-08-02T02:12:57;2.60;;;2.13;;
10170;SDS011;5127;50.922;6.988;2022-08-02T02:15:30;2.20;;;2.00;;
10170;SDS011;5127;50.922;6.988;2022-08-02T02:17:58;2.80;;;1.90;;
10170;SDS011;5127;50.922;6.988;2022-08-02T02:20:28;2.20;;;1.87;;
10170;SDS011;5127;50.922;6.988;2022-08-02T02:22:56;2.03;;;1.90;;
10170;SDS011;5127;50.922;6.988;2022-08-02T02:25:24;2.20;;;2.00;;
10170;SDS011;5127;50.922;6.988;2022-08-02T02:27:57;2.53;;;1.90;;
10170;SDS011;5127;50.922;6.988;2022-08-02T02:30:30;3.10;;;2.13;;
10170;SDS011;5127;50.922;6.988;2022-08-02T02:33:00;2.87;;;2.10;;
10170;SDS011;5127;50.922;6.988;2022-08-02T02:35:28;2.43;;;2.13;;
10170;SDS011;5127;50.922;6.988;2022-08-02T02:38:01;2.30;;;2.10;;
10170;SDS011;5127;50.922;6.988;2022-08-02T02:40:30;2.37;;;2.13;;
10170;SDS011;5127;50.922;6.988;2022-08-02T02:42:59;2.50;;;2.30;;
10170;SDS011;5127;50.922;6.988;2022-08-02T02:45:27;2.30;;;2.10;;
10170;SDS011;5127;50.922;6.988;2022-08-02T02:47:57;2.50;;;2.30;;
10170;SDS011;5127;50.922;6.988;2022-08-02T02:50:27;2.50;;;2.20;;
10170;SDS011;5127;50.922;6.988;2022-08-02T02:52:56;2.53;;;2.17;;
10170;SDS011;5127;50.922;6.988;2022-08-02T02:55:23;3.67;;;2.30;;
10170;SDS011;5127;50.922;6.988;2022-08-02T02:57:52;2.40;;;2.07;;
10170;SDS011;5127;50.922;6.988;2022-08-02T03:00:20;2.50;;;2.30;;
10170;SDS011;5127;50.922;6.988;2022-08-02T03:03:04;2.43;;;2.23;;
10170;SDS011;5127;50.922;6.988;2022-08-02T03:05:32;2.40;;;2.03;;
10170;SDS011;5127;50.922;6.988;2022-08-02T03:08:00;2.73;;;2.13;;
10170;SDS011;5127;50.922;6.988;2022-08-02T03:10:27;3.73;;;2.47;;
10170;SDS011;5127;50.922;6.988;2022-08-02T03:12:54;3.87;;;2.17;;
10170;SDS011;5127;50.922;6.988;2022-08-02T03:15:23;2.20;;;2.10;;
10170;SDS011;5127;50.922;6.988;2022-08-02T03:17:53;2.47;;;2.27;;
10170;SDS011;5127;50.922;6.988;2022-08-02T03:20:22;3.20;;;2.50;;
10170;SDS011;5127;50.922;6.988;2022-08-02T03:22:50;2.60;;;2.40;;
10170;SDS011;5127;50.922;6.988;2022-08-02T03:25:17;2.40;;;2.20;;
10170;SDS011;5127;50.922;6.988;2022-08-02T03:27:45;3.20;;;2.37;;
10170;SDS011;5127;50.922;6.988;2022-08-02T03:30:12;2.57;;;2.37;;
10170;SDS011;5127;50.922;6.988;2022-08-02T03:32:41;2.60;;;2.40;;
10170;SDS011;5127;50.922;6.988;2022-08-02T03:35:10;1.97;;;1.87;;
10170;SDS011;5127;50.922;6.988;2022-08-02T03:37:42;2.53;;;2.33;;
10170;SDS011;5127;50.922;6.988;2022-08-02T03:40:09;3.00;;;2.33;;
10170;SDS011;5127;50.922;6.988;2022-08-02T03:42:38;2.40;;;2.20;;
10170;SDS011;5127;50.922;6.988;2022-08-02T03:45:07;3.03;;;2.50;;
10170;SDS011;5127;50.922;6.988;2022-08-02T03:47:37;2.63;;;2.43;;
10170;SDS011;5127;50.922;6.988;2022-08-02T03:50:05;2.60;;;2.40;;
10170;SDS011;5127;50.922;6.988;2022-08-02T03:52:36;2.63;;;2.40;;
10170;SDS011;5127;50.922;6.988;2022-08-02T03:55:05;2.43;;;2.23;;
10170;SDS011;5127;50.922;6.988;2022-08-02T03:57:36;3.13;;;2.30;;
10170;SDS011;5127;50.922;6.988;2022-08-02T04:00:05;3.13;;;2.10;;
10170;SDS011;5127;50.922;6.988;2022-08-02T04:02:38;2.30;;;2.10;;
10170;SDS011;5127;50.922;6.988;2022-08-02T04:05:05;2.83;;;2.40;;
10170;SDS011;5127;50.922;6.988;2022-08-02T04:07:33;2.40;;;2.20;;
10170;SDS011;5127;50.922;6.988;2022-08-02T04:10:00;2.43;;;2.23;;
10170;SDS011;5127;50.922;6.988;2022-08-02T04:12:29;2.43;;;2.23;;
10170;SDS011;5127;50.922;6.988;2022-08-02T04:14:56;3.03;;;2.33;;
10170;SDS011;5127;50.922;6.988;2022-08-02T04:17:24;2.77;;;2.57;;
10170;SDS011;5127;50.922;6.988;2022-08-02T04:19:57;2.63;;;2.33;;
10170;SDS011;5127;50.922;6.988;2022-08-02T04:22:29;2.60;;;2.40;;
10170;SDS011;5127;50.922;6.988;2022-08-02T04:25:02;2.50;;;2.30;;
10170;SDS011;5127;50.922;6.988;2022-08-02T04:27:33;2.27;;;2.07;;
10170;SDS011;5127;50.922;6.988;2022-08-02T04:30:02;3.00;;;2.80;;
10170;SDS011;5127;50.922;6.988;2022-08-02T04:32:31;2.80;;;2.60;;
10170;SDS011;5127;50.922;6.988;2022-08-02T04:34:59;2.27;;;2.07;;
10170;SDS011;5127;50.922;6.988;2022-08-02T04:37:26;4.03;;;2.70;;
10170;SDS011;5127;50.922;6.988;2022-08-02T04:39:53;2.60;;;2.40;;
10170;SDS011;5127;50.922;6.988;2022-08-02T04:42:21;4.67;;;2.53;;
10170;SDS011;5127;50.922;6.988;2022-08-02T04:44:51;4.37;;;2.73;;
10170;SDS011;5127;50.922;6.988;2022-08-02T04:47:19;2.90;;;2.57;;
10170;SDS011;5127;50.922;6.988;2022-08-02T04:49:47;2.97;;;2.77;;
10170;SDS011;5127;50.922;6.988;2022-08-02T04:52:14;3.83;;;3.40;;
10170;SDS011;5127;50.922;6.988;2022-08-02T04:54:41;3.07;;;2.87;;
10170;SDS011;5127;50.922;6.988;2022-08-02T04:57:08;3.73;;;3.33;;
10170;SDS011;5127;50.922;6.988;2022-08-02T04:59:50;4.27;;;3.27;;
10170;SDS011;5127;50.922;6.988;2022-08-02T05:02:18;3.27;;;3.03;;
10170;SDS011;5127;50.922;6.988;2022-08-02T05:04:45;4.00;;;3.60;;
10170;SDS011;5127;50.922;6.988;2022-08-02T05:07:13;3.97;;;3.20;;
10170;SDS011;5127;50.922;6.988;2022-08-02T05:09:40;3.67;;;3.37;;
10170;SDS011;5127;50.922;6.988;2022-08-02T05:12:07;3.63;;;3.33;;
10170;SDS011;5127;50.922;6.988;2022-08-02T05:14:35;3.90;;;3.60;;
10170;SDS011;5127;50.922;6.988;2022-08-02T05:17:03;3.93;;;3.53;;
10170;SDS011;5127;50.922;6.988;2022-08-02T05:19:30;4.17;;;3.60;;
10170;SDS011;5127;50.922;6.988;2022-08-02T05:21:58;3.93;;;3.63;;
10170;SDS011;5127;50.922;6.988;2022-08-02T05:24:25;4.97;;;3.63;;
10170;SDS011;5127;50.922;6.988;2022-08-02T05:26:52;4.43;;;4.03;;
10170;SDS011;5127;50.922;6.988;2022-08-02T05:29:20;4.00;;;3.70;;
10170;SDS011;5127;50.922;6.988;2022-08-02T05:31:47;3.40;;;3.20;;
10170;SDS011;5127;50.922;6.988;2022-08-02T05:34:16;3.83;;;3.53;;
10170;SDS011;5127;50.922;6.988;2022-08-02T05:36:43;4.20;;;3.30;;
10170;SDS011;5127;50.922;6.988;2022-08-02T05:39:10;4.30;;;3.33;;
10170;SDS011;5127;50.922;6.988;2022-08-02T05:41:37;5.63;;;3.53;;
10170;SDS011;5127;50.922;6.988;2022-08-02T05:44:05;3.80;;;3.23;;
10170;SDS011;5127;50.922;6.988;2022-08-02T05:46:32;4.60;;;3.70;;
10170;SDS011;5127;50.922;6.988;2022-08-02T05:48:59;4.33;;;3.10;;
10170;SDS011;5127;50.922;6.988;2022-08-02T05:51:32;4.90;;;3.17;;
10170;SDS011;5127;50.922;6.988;2022-08-02T05:54:06;3.40;;;3.20;;
10170;SDS011;5127;50.922;6.988;2022-08-02T05:56:44;3.40;;;3.10;;
10170;SDS011;5127;50.922;6.988;2022-08-02T05:59:18;3.27;;;2.67;;
10170;SDS011;5127;50.922;6.988;2022-08-02T06:01:58;4.78;;;2.65;;
10170;SDS011;5127;50.922;6.988;2022-08-02T06:04:32;3.40;;;3.10;;
10170;SDS011;5127;50.922;6.988;2022-08-02T06:07:11;5.10;;;2.77;;
10170;SDS011;5127;50.922;6.988;2022-08-02T06:09:40;3.42;;;3.13;;
10170;SDS011;5127;50.922;6.988;2022-08-02T06:12:08;4.90;;;3.10;;
10170;SDS011;5127;50.922;6.988;2022-08-02T06:14:38;3.20;;;2.90;;
10170;SDS011;5127;50.922;6.988;2022-08-02T06:17:07;3.13;;;2.80;;
10170;SDS011;5127;50.922;6.988;2022-08-02T06:19:35;3.88;;;2.95;;
10170;SDS011;5127;50.922;6.988;2022-08-02T06:22:03;4.43;;;3.03;;
10170;SDS011;5127;50.922;6.988;2022-08-02T06:24:43;3.58;;;3.28;;
10170;SDS011;5127;50.922;6.988;2022-08-02T06:27:11;5.25;;;3.08;;
10170;SDS011;5127;50.922;6.988;2022-08-02T06:29:40;3.15;;;2.95;;
10170;SDS011;5127;50.922;6.988;2022-08-02T06:32:09;4.22;;;2.88;;
10170;SDS011;5127;50.922;6.988;2022-08-02T06:34:36;4.53;;;2.80;;
10170;SDS011;5127;50.922;6.988;2022-08-02T06:37:06;3.17;;;2.88;;
10170;SDS011;5127;50.922;6.988;2022-08-02T06:39:42;4.20;;;2.60;;
10170;SDS011;5127;50.922;6.988;2022-08-02T06:42:14;3.85;;;3.33;;
10170;SDS011;5127;50.922;6.988;2022-08-02T06:44:45;2.50;;;2.30;;
10170;SDS011;5127;50.922;6.988;2022-08-02T06:47:12;2.85;;;2.60;;
10170;SDS011;5127;50.922;6.988;2022-08-02T06:49:40;3.33;;;2.80;;
10170;SDS011;5127;50.922;6.988;2022-08-02T06:52:07;3.30;;;2.90;;
10170;SDS011;5127;50.922;6.988;2022-08-02T06:54:35;2.80;;;2.55;;
10170;SDS011;5127;50.922;6.988;2022-08-02T06:57:04;5.07;;;2.42;;
10170;SDS011;5127;50.922;6.988;2022-08-02T06:59:32;3.50;;;2.60;;
10170;SDS011;5127;50.922;6.988;2022-08-02T07:02:00;2.65;;;2.33;;
10170;SDS011;5127;50.922;6.988;2022-08-02T07:04:28;2.95;;;2.50;;
10170;SDS011;5127;50.922;6.988;2022-08-02T07:06:55;3.83;;;2.50;;
10170;SDS011;5127;50.922;6.988;2022-08-02T07:09:22;3.35;;;2.53;;
10170;SDS011;5127;50.922;6.988;2022-08-02T07:11:49;2.03;;;1.83;;
10170;SDS011;5127;50.922;6.988;2022-08-02T07:14:18;2.47;;;2.03;;
10170;SDS011;5127;50.922;6.988;2022-08-02T07:16:45;2.35;;;2.15;;
10170;SDS011;5127;50.922;6.988;2022-08-02T07:19:13;2.53;;;2.22;;
10170;SDS011;5127;50.922;6.988;2022-08-02T07:21:40;2.30;;;2.10;;
10170;SDS011;5127;50.922;6.988;2022-08-02T07:24:07;2.35;;;2.15;;
10170;SDS011;5127;50.922;6.988;2022-08-02T07:26:34;3.20;;;2.60;;
10170;SDS011;5127;50.922;6.988;2022-08-02T07:29:02;2.05;;;1.85;;
10170;SDS011;5127;50.922;6.988;2022-08-02T07:31:30;2.05;;;1.83;;
10170;SDS011;5127;50.922;6.988;2022-08-02T07:33:57;2.38;;;2.20;;
10170;SDS011;5127;50.922;6.988;2022-08-02T07:36:25;2.75;;;2.10;;
10170;SDS011;5127;50.922;6.988;2022-08-02T07:38:52;2.03;;;1.85;;
10170;SDS011;5127;50.922;6.988;2022-08-02T07:41:19;3.10;;;1.77;;
10170;SDS011;5127;50.922;6.988;2022-08-02T07:43:46;3.05;;;1.90;;
10170;SDS011;5127;50.922;6.988;2022-08-02T07:46:14;1.70;;;1.60;;
10170;SDS011;5127;50.922;6.988;2022-08-02T07:48:42;2.45;;;1.70;;
10170;SDS011;5127;50.922;6.988;2022-08-02T07:51:11;1.85;;;1.73;;
10170;SDS011;5127;50.922;6.988;2022-08-02T07:53:38;1.67;;;1.58;;
10170;SDS011;5127;50.922;6.988;2022-08-02T07:56:06;1.48;;;1.38;;
10170;SDS011;5127;50.922;6.988;2022-08-02T07:58:33;1.45;;;1.38;;
10170;SDS011;5127;50.922;6.988;2022-08-02T08:01:01;1.70;;;1.60;;
10170;SDS011;5127;50.922;6.988;2022-08-02T08:03:28;1.88;;;1.70;;
10170;SDS011;5127;50.922;6.988;2022-08-02T08:05:56;2.83;;;1.70;;
10170;SDS011;5127;50.922;6.988;2022-08-02T08:08:24;1.67;;;1.30;;
10170;SDS011;5127;50.922;6.988;2022-08-02T08:10:51;2.17;;;1.55;;
10170;SDS011;5127;50.922;6.988;2022-08-02T08:13:18;1.60;;;1.50;;
10170;SDS011;5127;50.922;6.988;2022-08-02T08:15:46;1.50;;;1.40;;
10170;SDS011;5127;50.922;6.988;2022-08-02T08:18:13;3.33;;;1.52;;
10170;SDS011;5127;50.922;6.988;2022-08-02T08:20:40;1.60;;;1.38;;
10170;SDS011;5127;50.922;6.988;2022-08-02T08:23:09;1.88;;;1.70;;
10170;SDS011;5127;50.922;6.988;2022-08-02T08:25:36;1.90;;;1.58;;
10170;SDS011;5127;50.922;6.988;2022-08-02T08:28:04;1.83;;;1.30;;
10170;SDS011;5127;50.922;6.988;2022-08-02T08:30:31;2.55;;;1.40;;
10170;SDS011;5127;50.922;6.988;2022-08-02T08:32:58;2.78;;;1.40;;
10170;SDS011;5127;50.922;6.988;2022-08-02T08:35:26;2.45;;;1.35;;
10170;SDS011;5127;50.922;6.988;2022-08-02T08:37:53;1.23;;;1.13;;
10170;SDS011;5127;50.922;6.988;2022-08-02T08:40:23;2.97;;;1.50;;
10170;SDS011;5127;50.922;6.988;2022-08-02T08:42:51;2.40;;;1.60;;
10170;SDS011;5127;50.922;6.988;2022-08-02T08:45:18;1.77;;;1.38;;
10170;SDS011;5127;50.922;6.988;2022-08-02T08:47:50;1.60;;;1.17;;
10170;SDS011;5127;50.922;6.988;2022-08-02T08:50:23;1.30;;;1.20;;
10170;SDS011;5127;50.922;6.988;2022-08-02T08:52:53;1.48;;;1.30;;
10170;SDS011;5127;50.922;6.988;2022-08-02T08:55:30;1.42;;;1.33;;
10170;SDS011;5127;50.922;6.988;2022-08-02T08:58:00;1.50;;;1.08;;
10170;SDS011;5127;50.922;6.988;2022-08-02T09:00:28;1.38;;;1.33;;
10170;SDS011;5127;50.922;6.988;2022-08-02T09:02:56;2.50;;;1.40;;
10170;SDS011;5127;50.922;6.988;2022-08-02T09:05:24;2.70;;;1.30;;
10170;SDS011;5127;50.922;6.988;2022-08-02T09:07:51;1.63;;;1.35;;
10170;SDS011;5127;50.922;6.988;2022-08-02T09:13:07;1.25;;;1.15;;
10170;SDS011;5127;50.922;6.988;2022-08-02T09:15:41;2.03;;;1.38;;
10170;SDS011;5127;50.922;6.988;2022-08-02T09:18:09;3.20;;;1.40;;
10170;SDS011;5127;50.922;6.988;2022-08-02T09:20:50;2.30;;;1.35;;
10170;SDS011;5127;50.922;6.988;2022-08-02T09:23:19;2.60;;;1.25;;
10170;SDS011;5127;50.922;6.988;2022-08-02T09:25:57;1.52;;;1.42;;
10170;SDS011;5127;50.922;6.988;2022-08-02T09:28:27;1.75;;;1.25;;
10170;SDS011;5127;50.922;6.988;2022-08-02T09:30:55;1.75;;;1.58;;
10170;SDS011;5127;50.922;6.988;2022-08-02T09:33:24;1.17;;;1.10;;
10170;SDS011;5127;50.922;6.988;2022-08-02T09:35:57;1.25;;;1.15;;
10170;SDS011;5127;50.922;6.988;2022-08-02T09:38:26;1.45;;;1.27;;
10170;SDS011;5127;50.922;6.988;2022-08-02T09:40:54;2.00;;;1.30;;
10170;SDS011;5127;50.922;6.988;2022-08-02T09:43:35;1.30;;;1.08;;
10170;SDS011;5127;50.922;6.988;2022-08-02T09:46:10;1.80;;;1.27;;
10170;SDS011;5127;50.922;6.988;2022-08-02T09:48:48;2.17;;;1.30;;
10170;SDS011;5127;50.922;6.988;2022-08-02T09:51:18;1.77;;;1.38;;
10170;SDS011;5127;50.922;6.988;2022-08-02T09:53:48;1.40;;;1.30;;
10170;SDS011;5127;50.922;6.988;2022-08-02T09:56:17;1.73;;;1.27;;
10170;SDS011;5127;50.922;6.988;2022-08-02T09:58:47;1.20;;;1.05;;
10170;SDS011;5127;50.922;6.988;2022-08-02T10:01:17;0.95;;;0.95;;
10170;SDS011;5127;50.922;6.988;2022-08-02T10:03:52;2.50;;;1.40;;
10170;SDS011;5127;50.922;6.988;2022-08-02T10:06:21;1.35;;;1.10;;
10170;SDS011;5127;50.922;6.988;2022-08-02T10:08:49;1.75;;;1.05;;
10170;SDS011;5127;50.922;6.988;2022-08-02T10:11:18;2.35;;;1.10;;
10170;SDS011;5127;50.922;6.988;2022-08-02T10:13:48;0.82;;;0.82;;
10170;SDS011;5127;50.922;6.988;2022-08-02T10:16:17;1.10;;;1.00;;
10170;SDS011;5127;50.922;6.988;2022-08-02T10:18:48;1.02;;;1.00;;
10170;SDS011;5127;50.922;6.988;2022-08-02T10:21:18;1.02;;;1.00;;
10170;SDS011;5127;50.922;6.988;2022-08-02T10:23:48;1.75;;;0.80;;
10170;SDS011;5127;50.922;6.988;2022-08-02T10:26:28;1.02;;;0.98;;
10170;SDS011;5127;50.922;6.988;2022-08-02T10:28:58;1.17;;;1.10;;
10170;SDS011;5127;50.922;6.988;2022-08-02T10:31:26;0.85;;;0.85;;
10170;SDS011;5127;50.922;6.988;2022-08-02T10:34:00;0.80;;;0.80;;
10170;SDS011;5127;50.922;6.988;2022-08-02T10:36:30;1.65;;;0.95;;
10170;SDS011;5127;50.922;6.988;2022-08-02T10:39:00;0.82;;;0.82;;
10170;SDS011;5127;50.922;6.988;2022-08-02T10:41:41;1.58;;;0.90;;
10170;SDS011;5127;50.922;6.988;2022-08-02T10:44:19;0.98;;;0.98;;
10170;SDS011;5127;50.922;6.988;2022-08-02T10:46:48;1.20;;;1.10;;
10170;SDS011;5127;50.922;6.988;2022-08-02T10:49:16;1.00;;;1.00;;
10170;SDS011;5127;50.922;6.988;2022-08-02T10:52:03;4.32;;;1.05;;
10170;SDS011;5127;50.922;6.988;2022-08-02T10:54:33;1.27;;;1.13;;
10170;SDS011;5127;50.922;6.988;2022-08-02T10:57:02;1.20;;;1.13;;
10170;SDS011;5127;50.922;6.988;2022-08-02T10:59:40;1.23;;;1.13;;
10170;SDS011;5127;50.922;6.988;2022-08-02T11:02:08;1.77;;;1.10;;
10170;SDS011;5127;50.922;6.988;2022-08-02T11:07:31;1.08;;;0.98;;
10170;SDS011;5127;50.922;6.988;2022-08-02T11:13:04;1.05;;;1.00;;
10170;SDS011;5127;50.922;6.988;2022-08-02T11:15:48;2.22;;;1.00;;
10170;SDS011;5127;50.922;6.988;2022-08-02T11:18:18;1.10;;;1.00;;
10170;SDS011;5127;50.922;6.988;2022-08-02T11:20:46;1.40;;;1.30;;
10170;SDS011;5127;50.922;6.988;2022-08-02T11:23:34;2.88;;;1.20;;
10170;SDS011;5127;50.922;6.988;2022-08-02T11:26:08;1.10;;;1.00;;
10170;SDS011;5127;50.922;6.988;2022-08-02T11:29:16;1.33;;;0.93;;
10170;SDS011;5127;50.922;6.988;2022-08-02T11:31:46;1.00;;;1.00;;
10170;SDS011;5127;50.922;6.988;2022-08-02T11:34:14;0.95;;;0.93;;
10170;SDS011;5127;50.922;6.988;2022-08-02T11:36:43;1.00;;;1.00;;
10170;SDS011;5127;50.922;6.988;2022-08-02T11:39:12;1.25;;;0.98;;
10170;SDS011;5127;50.922;6.988;2022-08-02T11:41:40;1.00;;;1.00;;
10170;SDS011;5127;50.922;6.988;2022-08-02T11:44:07;1.40;;;1.30;;
10170;SDS011;5127;50.922;6.988;2022-08-02T11:46:35;1.50;;;1.40;;
10170;SDS011;5127;50.922;6.988;2022-08-02T11:49:14;1.95;;;1.02;;
10170;SDS011;5127;50.922;6.988;2022-08-02T11:51:50;1.05;;;0.95;;
10170;SDS011;5127;50.922;6.988;2022-08-02T11:54:22;1.13;;;1.10;;
10170;SDS011;5127;50.922;6.988;2022-08-02T11:56:50;1.17;;;1.10;;
10170;SDS011;5127;50.922;6.988;2022-08-02T11:59:18;1.00;;;1.00;;
10170;SDS011;5127;50.922;6.988;2022-08-02T12:01:45;29.05;;;3.10;;
10170;SDS011;5127;50.922;6.988;2022-08-02T12:04:16;1.58;;;1.20;;
10170;SDS011;5127;50.922;6.988;2022-08-02T12:06:55;1.92;;;1.17;;
10170;SDS011;5127;50.922;6.988;2022-08-02T12:09:24;1.88;;;1.02;;
10170;SDS011;5127;50.922;6.988;2022-08-02T12:11:52;1.52;;;1.42;;
10170;SDS011;5127;50.922;6.988;2022-08-02T12:14:20;3.78;;;1.30;;
10170;SDS011;5127;50.922;6.988;2022-08-02T12:16:48;2.55;;;1.40;;
10170;SDS011;5127;50.922;6.988;2022-08-02T12:19:35;4.53;;;1.38;;
10170;SDS011;5127;50.922;6.988;2022-08-02T12:22:14;1.30;;;1.20;;
10170;SDS011;5127;50.922;6.988;2022-08-02T12:24:44;3.10;;;1.08;;
10170;SDS011;5127;50.922;6.988;2022-08-02T12:27:32;2.90;;;1.20;;
10170;SDS011;5127;50.922;6.988;2022-08-02T12:30:03;1.02;;;0.98;;
10170;SDS011;5127;50.922;6.988;2022-08-02T12:32:33;1.48;;;1.20;;
10170;SDS011;5127;50.922;6.988;2022-08-02T12:35:05;1.08;;;1.05;;
10170;SDS011;5127;50.922;6.988;2022-08-02T12:37:35;1.25;;;1.10;;
10170;SDS011;5127;50.922;6.988;2022-08-02T12:40:16;0.95;;;0.95;;
10170;SDS011;5127;50.922;6.988;2022-08-02T12:42:47;1.30;;;1.20;;
10170;SDS011;5127;50.922;6.988;2022-08-02T12:45:15;0.95;;;0.90;;
10170;SDS011;5127;50.922;6.988;2022-08-02T12:47:43;1.30;;;1.20;;
10170;SDS011;5127;50.922;6.988;2022-08-02T12:50:15;1.60;;;1.10;;
10170;SDS011;5127;50.922;6.988;2022-08-02T12:52:45;0.93;;;0.93;;
10170;SDS011;5127;50.922;6.988;2022-08-02T12:55:14;3.65;;;1.30;;
10170;SDS011;5127;50.922;6.988;2022-08-02T12:57:52;1.52;;;1.00;;
10170;SDS011;5127;50.922;6.988;2022-08-02T13:00:25;0.93;;;0.88;;
10170;SDS011;5127;50.922;6.988;2022-08-02T13:02:53;2.15;;;1.10;;
10170;SDS011;5127;50.922;6.988;2022-08-02T13:05:22;1.77;;;1.10;;
10170;SDS011;5127;50.922;6.988;2022-08-02T13:07:50;1.30;;;1.20;;
10170;SDS011;5127;50.922;6.988;2022-08-02T13:10:18;1.33;;;1.13;;
10170;SDS011;5127;50.922;6.988;2022-08-02T13:12:46;4.47;;;1.20;;
10170;SDS011;5127;50.922;6.988;2022-08-02T13:15:14;1.10;;;1.10;;
10170;SDS011;5127;50.922;6.988;2022-08-02T13:17:42;1.10;;;1.10;;
10170;SDS011;5127;50.922;6.988;2022-08-02T13:20:10;1.17;;;1.02;;
10170;SDS011;5127;50.922;6.988;2022-08-02T13:22:40;1.23;;;1.13;;
10170;SDS011;5127;50.922;6.988;2022-08-02T13:25:08;1.33;;;1.23;;
10170;SDS011;5127;50.922;6.988;2022-08-02T13:27:36;1.13;;;1.02;;
10170;SDS011;5127;50.922;6.988;2022-08-02T13:30:04;1.17;;;1.10;;
10170;SDS011;5127;50.922;6.988;2022-08-02T13:32:32;1.17;;;1.13;;
10170;SDS011;5127;50.922;6.988;2022-08-02T13:35:00;1.40;;;1.25;;
10170;SDS011;5127;50.922;6.988;2022-08-02T13:37:27;1.20;;;1.17;;
10170;SDS011;5127;50.922;6.988;2022-08-02T13:39:55;1.42;;;1.30;;
10170;SDS011;5127;50.922;6.988;2022-08-02T13:42:23;1.30;;;1.20;;
10170;SDS011;5127;50.922;6.988;2022-08-02T13:44:50;1.50;;;1.27;;
10170;SDS011;5127;50.922;6.988;2022-08-02T13:47:17;1.30;;;1.20;;
10170;SDS011;5127;50.922;6.988;2022-08-02T13:49:44;1.40;;;1.30;;
10170;SDS011;5127;50.922;6.988;2022-08-02T13:52:12;1.50;;;1.40;;
10170;SDS011;5127;50.922;6.988;2022-08-02T13:54:39;1.20;;;1.10;;
10170;SDS011;5127;50.922;6.988;2022-08-02T13:57:08;1.38;;;1.27;;
10170;SDS011;5127;50.922;6.988;2022-08-02T13:59:35;1.23;;;1.10;;
10170;SDS011;5127;50.922;6.988;2022-08-02T14:02:02;1.50;;;0.90;;
10170;SDS011;5127;50.922;6.988;2022-08-02T14:04:30;2.03;;;1.10;;
10170;SDS011;5127;50.922;6.988;2022-08-02T14:06:57;1.25;;;1.15;;
10170;SDS011;5127;50.922;6.988;2022-08-02T14:09:24;1.30;;;1.20;;
10170;SDS011;5127;50.922;6.988;2022-08-02T14:11:52;1.30;;;1.27;;
10170;SDS011;5127;50.922;6.988;2022-08-02T14:14:20;1.00;;;1.00;;
10170;SDS011;5127;50.922;6.988;2022-08-02T14:16:48;2.88;;;1.20;;
10170;SDS011;5127;50.922;6.988;2022-08-02T14:19:15;1.13;;;1.13;;
10170;SDS011;5127;50.922;6.988;2022-08-02T14:21:42;1.20;;;1.10;;
10170;SDS011;5127;50.922;6.988;2022-08-02T14:24:09;1.15;;;1.05;;
10170;SDS011;5127;50.922;6.988;2022-08-02T14:26:37;1.23;;;1.17;;
10170;SDS011;5127;50.922;6.988;2022-08-02T14:29:04;1.40;;;1.30;;
10170;SDS011;5127;50.922;6.988;2022-08-02T14:31:32;1.88;;;1.40;;
10170;SDS011;5127;50.922;6.988;2022-08-02T14:34:00;1.00;;;1.00;;
10170;SDS011;5127;50.922;6.988;2022-08-02T14:36:28;1.45;;;1.27;;
10170;SDS011;5127;50.922;6.988;2022-08-02T14:38:55;1.38;;;1.23;;
10170;SDS011;5127;50.922;6.988;2022-08-02T14:41:22;1.52;;;1.00;;
10170;SDS011;5127;50.922;6.988;2022-08-02T14:43:50;1.10;;;1.10;;
10170;SDS011;5127;50.922;6.988;2022-08-02T14:46:29;1.92;;;1.08;;
10170;SDS011;5127;50.922;6.988;2022-08-02T14:48:59;2.60;;;1.00;;
10170;SDS011;5127;50.922;6.988;2022-08-02T14:51:28;1.20;;;1.20;;
10170;SDS011;5127;50.922;6.988;2022-08-02T14:53:56;1.23;;;1.15;;
10170;SDS011;5127;50.922;6.988;2022-08-02T14:56:23;1.40;;;1.10;;
10170;SDS011;5127;50.922;6.988;2022-08-02T14:58:51;1.65;;;1.10;;
10170;SDS011;5127;50.922;6.988;2022-08-02T15:01:18;1.90;;;1.38;;
10170;SDS011;5127;50.922;6.988;2022-08-02T15:03:45;1.20;;;1.10;;
10170;SDS011;5127;50.922;6.988;2022-08-02T15:06:14;1.30;;;1.20;;
10170;SDS011;5127;50.922;6.988;2022-08-02T15:08:41;1.25;;;1.15;;
10170;SDS011;5127;50.922;6.988;2022-08-02T15:11:09;2.08;;;1.25;;
10170;SDS011;5127;50.922;6.988;2022-08-02T15:13:36;1.65;;;1.52;;
10170;SDS011;5127;50.922;6.988;2022-08-02T15:16:04;1.73;;;1.13;;
10170;SDS011;5127;50.922;6.988;2022-08-02T15:18:31;1.45;;;1.08;;
10170;SDS011;5127;50.922;6.988;2022-08-02T15:20:58;1.15;;;1.10;;
10170;SDS011;5127;50.922;6.988;2022-08-02T15:23:27;1.35;;;1.02;;